Time;durP1;ratioP1;P1;durP2;ratioP2;P2;SDS_P1;SDS_P2;PMS_P1;PMS_P2;Temp;Humidity;BMP_temperature;BMP_pressure;BME280_temperature;BME280_humidity;BME280_pressure;Samples;Min_cycle;Max_cycle;Signal;HPM_P1;HPM_P2
2022/09/14 00:01:19;;;;;;;4.65;1.27;;;21.60;99.90;;;;;;5017348;28;20088;-82
2022/09/14 00:03:58;;;;;;;7.43;1.55;;;21.60;99.90;;;;;;5007892;28;20050;-83
2022/09/14 00:06:26;;;;;;;3.90;1.40;;;21.60;99.90;;;;;;5011092;28;20057;-83
2022/09/14 00:08:54;;;;;;;10.13;2.00;;;21.60;99.90;;;;;;5013684;28;20041;-83
2022/09/14 00:11:23;;;;;;;5.47;1.83;;;21.60;99.90;;;;;;5016634;28;20148;-83
2022/09/14 00:13:50;;;;;;;3.53;1.95;;;21.60;99.90;;;;;;5019112;28;20517;-82
2022/09/14 00:16:23;;;;;;;7.57;2.28;;;21.60;99.90;;;;;;5029001;28;20049;-82
2022/09/14 00:18:52;;;;;;;5.40;2.08;;;21.50;99.90;;;;;;5027019;28;20054;-82
2022/09/14 00:21:19;;;;;;;4.88;2.10;;;21.50;99.90;;;;;;5015799;28;20052;-82
2022/09/14 00:23:46;;;;;;;6.85;2.33;;;21.50;99.90;;;;;;5001619;28;20420;-82
2022/09/14 00:26:16;;;;;;;8.65;2.40;;;21.50;99.90;;;;;;5003988;28;20202;-83
2022/09/14 00:28:46;;;;;;;6.13;2.50;;;21.40;99.90;;;;;;5005753;28;20050;-82
2022/09/14 00:31:14;;;;;;;9.73;2.75;;;21.40;99.90;;;;;;5009002;28;20053;-82
2022/09/14 00:33:41;;;;;;;6.32;2.25;;;21.40;99.90;;;;;;5012124;28;20058;-82
2022/09/14 00:36:11;;;;;;;8.18;2.45;;;21.40;99.90;;;;;;5010694;28;20124;-82
2022/09/14 00:38:38;;;;;;;8.10;2.28;;;21.40;99.90;;;;;;5007245;28;20492;-81
2022/09/14 00:41:09;;;;;;;7.90;2.40;;;21.40;99.90;;;;;;5005773;28;20050;-81
2022/09/14 00:43:55;;;;;;;5.70;2.25;;;21.40;99.90;;;;;;5002438;28;20056;-82
2022/09/14 00:46:22;;;;;;;8.48;2.40;;;21.40;99.90;;;;;;4998838;28;20516;-83
2022/09/14 00:48:49;;;;;;;7.93;2.42;;;21.40;99.90;;;;;;4996042;28;20052;-82
2022/09/14 00:51:18;;;;;;;7.82;2.55;;;21.40;99.90;;;;;;4992752;28;20133;-82
2022/09/14 00:53:45;;;;;;;8.68;2.08;;;21.40;99.90;;;;;;4994387;28;20046;-81
2022/09/14 00:56:13;;;;;;;8.48;2.13;;;21.40;99.90;;;;;;4998346;28;20054;-83
2022/09/14 00:58:43;;;;;;;7.93;2.40;;;21.40;99.90;;;;;;5002400;28;20092;-83
2022/09/14 01:01:10;;;;;;;;;;;21.40;99.90;;;;;;5005764;28;20050;-82
2022/09/14 01:03:37;;;;;;;3.70;2.10;;;21.50;99.90;;;;;;5007620;28;19933;-82
2022/09/14 01:06:20;;;;;;;5.47;2.13;;;21.50;99.90;;;;;;5009962;28;20060;-83
2022/09/14 01:09:23;;;;;;;4.85;1.92;;;21.50;99.90;;;;;;5011322;28;20108;-82
2022/09/14 01:12:09;;;;;;;5.28;2.90;;;21.50;99.90;;;;;;5013506;28;20057;-82
2022/09/14 01:15:00;;;;;;;8.32;2.15;;;21.60;99.90;;;;;;5011761;28;20049;-83
2022/09/14 01:17:54;;;;;;;4.95;2.03;;;21.60;99.90;;;;;;5006623;28;20046;-82
2022/09/14 01:20:26;;;;;;;4.05;2.20;;;21.60;99.90;;;;;;5005139;28;20058;-84
2022/09/14 01:23:26;;;;;;;7.90;2.20;;;21.60;99.90;;;;;;5008473;28;20054;-83
2022/09/14 01:26:11;;;;;;;7.85;2.58;;;21.60;99.90;;;;;;5000143;28;20065;-82
2022/09/14 01:28:52;;;;;;;11.02;2.40;;;21.60;99.90;;;;;;5002721;28;20053;-82
2022/09/14 01:31:33;;;;;;;5.85;1.92;;;21.60;99.90;;;;;;5002460;28;20045;-83
2022/09/14 01:34:14;;;;;;;7.65;2.20;;;21.60;99.90;;;;;;5006433;28;20054;-82
2022/09/14 01:36:43;;;;;;;;;;;21.60;99.90;;;;;;5013401;28;20052;-82
2022/09/14 01:39:10;;;;;;;5.38;2.67;;;21.50;99.90;;;;;;5017060;28;19928;-82
2022/09/14 01:41:38;;;;;;;6.50;2.25;;;21.50;99.90;;;;;;5007461;28;20088;-82
2022/09/14 01:44:12;;;;;;;5.10;1.63;;;21.50;99.90;;;;;;5004857;28;20555;-83
2022/09/14 01:46:45;;;;;;;5.13;2.55;;;21.50;99.90;;;;;;5004346;28;20046;-82
2022/09/14 01:49:30;;;;;;;10.00;2.22;;;21.50;99.90;;;;;;5017964;28;20050;-82
2022/09/14 01:52:00;;;;;;;5.85;2.40;;;21.50;99.90;;;;;;5016365;28;20053;-82
2022/09/14 01:54:41;;;;;;;6.50;2.60;;;21.50;99.90;;;;;;5017782;28;20057;-83
2022/09/14 01:57:35;;;;;;;9.60;2.33;;;21.50;99.90;;;;;;5009925;28;20049;-82
2022/09/14 02:00:07;;;;;;;6.80;1.80;;;21.50;99.90;;;;;;5010673;28;20054;-83
2022/09/14 02:02:38;;;;;;;6.10;1.92;;;21.60;99.90;;;;;;5004657;28;20054;-82
2022/09/14 02:05:36;;;;;;;5.45;1.80;;;21.60;99.90;;;;;;5005604;28;20116;-82
2022/09/14 02:08:03;;;;;;;7.60;2.17;;;21.60;99.90;;;;;;5014540;28;20057;-82
2022/09/14 02:10:30;;;;;;;5.97;2.08;;;21.60;99.90;;;;;;5016713;28;20046;-82
2022/09/14 02:12:57;;;;;;;4.57;1.50;;;21.60;99.90;;;;;;5011655;28;20043;-83
2022/09/14 02:15:27;;;;;;;4.57;2.33;;;21.70;99.90;;;;;;5016954;28;20132;-82
2022/09/14 02:17:54;;;;;;;6.20;2.00;;;21.70;99.90;;;;;;5004141;28;20046;-82
2022/09/14 02:20:42;;;;;;;5.72;2.10;;;21.70;99.90;;;;;;5000457;28;20058;-82
2022/09/14 02:23:09;;;;;;;4.22;1.92;;;21.70;99.90;;;;;;5000755;28;20054;-82
2022/09/14 02:25:39;;;;;;;8.50;2.40;;;21.70;99.90;;;;;;5003068;28;20058;-83
2022/09/14 02:28:06;;;;;;;6.53;2.22;;;21.70;99.90;;;;;;5018857;28;20072;-83
2022/09/14 02:30:55;;;;;;;8.88;2.40;;;21.70;99.90;;;;;;5010713;28;20049;-82
2022/09/14 02:33:34;;;;;;;4.88;2.17;;;21.70;99.90;;;;;;5008623;28;20058;-82
2022/09/14 02:36:13;;;;;;;5.65;2.13;;;21.70;99.90;;;;;;5009261;28;20531;-82
2022/09/14 02:38:51;;;;;;;7.25;2.20;;;21.70;99.90;;;;;;5008344;28;20262;-83
2022/09/14 02:41:38;;;;;;;6.63;2.30;;;21.70;99.90;;;;;;5007523;28;20050;-82
2022/09/14 02:44:13;;;;;;;3.22;2.00;;;21.70;99.90;;;;;;5006062;28;20054;-82
2022/09/14 02:46:52;;;;;;;5.32;2.05;;;21.70;99.90;;;;;;5024676;28;20105;-83
2022/09/14 02:49:58;;;;;;;4.32;1.95;;;21.70;99.90;;;;;;5020952;28;20058;-83
2022/09/14 02:52:57;;;;;;;6.78;3.20;;;21.70;99.90;;;;;;4987034;28;20440;-82
2022/09/14 02:55:28;;;;;;;6.28;3.03;;;21.60;99.90;;;;;;4998203;28;20054;-82
2022/09/14 02:58:01;;;;;;;10.77;3.17;;;21.60;99.90;;;;;;5001445;28;20057;-82
2022/09/14 03:00:30;;;;;;;10.40;3.20;;;21.50;99.90;;;;;;5009268;28;20499;-83
2022/09/14 03:02:57;;;;;;;8.57;2.90;;;21.50;99.90;;;;;;5012966;28;20104;-82
2022/09/14 03:05:24;;;;;;;7.15;3.30;;;21.50;99.90;;;;;;5012858;28;20060;-82
2022/09/14 03:07:50;;;;;;;3.95;2.65;;;21.50;99.90;;;;;;5010719;28;20046;-82
2022/09/14 03:10:17;;;;;;;6.03;3.13;;;21.50;99.90;;;;;;5006414;28;20554;-82
2022/09/14 03:12:44;;;;;;;7.63;3.22;;;21.40;99.90;;;;;;5004823;28;20162;-83
2022/09/14 03:15:10;;;;;;;7.80;2.47;;;21.40;99.90;;;;;;5001963;28;20073;-82
2022/09/14 03:17:37;;;;;;;7.97;2.70;;;21.40;99.90;;;;;;5000285;28;20047;-82
2022/09/14 03:20:04;;;;;;;5.80;2.92;;;21.30;99.90;;;;;;5015169;28;20061;-82
2022/09/14 03:22:32;;;;;;;4.80;2.60;;;21.30;99.90;;;;;;5016725;28;20136;-82
2022/09/14 03:24:59;;;;;;;8.57;2.95;;;21.30;99.90;;;;;;5014005;28;20054;-82
2022/09/14 03:27:25;;;;;;;4.30;2.63;;;21.30;99.90;;;;;;5011714;28;20061;-83
2022/09/14 03:29:52;;;;;;;6.78;3.58;;;21.30;99.90;;;;;;5005702;28;20058;-82
2022/09/14 03:32:18;;;;;;;6.80;3.08;;;21.30;99.90;;;;;;5003265;28;20512;-82
2022/09/14 03:34:45;;;;;;;11.05;3.15;;;21.30;99.90;;;;;;5002548;28;20056;-82
2022/09/14 03:37:12;;;;;;;7.43;2.90;;;21.20;99.90;;;;;;5017744;28;20056;-83
2022/09/14 03:39:39;;;;;;;5.75;2.67;;;21.20;99.90;;;;;;5019835;28;20418;-83
2022/09/14 03:42:05;;;;;;;5.82;2.47;;;21.20;99.90;;;;;;5014462;28;20057;-83
2022/09/14 03:44:32;;;;;;;3.75;2.83;;;21.10;99.90;;;;;;5012815;28;20054;-83
2022/09/14 03:46:59;;;;;;;9.85;3.17;;;21.10;99.90;;;;;;5007513;28;20049;-81
2022/09/14 03:49:26;;;;;;;5.45;2.55;;;21.10;99.90;;;;;;5004557;28;20046;-82
2022/09/14 03:51:52;;;;;;;4.57;2.70;;;21.10;99.90;;;;;;5004099;28;20042;-82
2022/09/14 03:54:25;;;;;;;4.38;2.90;;;21.10;99.90;;;;;;5004981;28;20081;-83
2022/09/14 03:56:53;;;;;;;7.55;3.20;;;21.10;99.90;;;;;;5003606;28;20422;-82
2022/09/14 03:59:20;;;;;;;4.32;2.88;;;21.00;99.90;;;;;;5007338;28;20053;-83
2022/09/14 04:01:47;;;;;;;6.07;2.72;;;21.00;99.90;;;;;;5012091;28;20584;-82
2022/09/14 04:04:14;;;;;;;6.95;2.97;;;21.00;99.90;;;;;;5005430;28;20396;-82
2022/09/14 04:06:41;;;;;;;8.02;2.90;;;20.90;99.90;;;;;;5004571;28;20501;-82
2022/09/14 04:09:08;;;;;;;4.13;2.50;;;21.00;99.90;;;;;;4997891;28;20055;-81
2022/09/14 04:11:35;;;;;;;2.80;2.05;;;20.90;99.90;;;;;;5000476;28;20493;-82
2022/09/14 04:14:03;;;;;;;4.63;2.67;;;20.90;99.90;;;;;;5008116;28;20045;-83
2022/09/14 04:16:30;;;;;;;6.22;3.00;;;20.90;99.90;;;;;;5013592;28;20052;-82
2022/09/14 04:18:57;;;;;;;5.35;2.67;;;20.90;99.90;;;;;;5012554;28;20136;-81
2022/09/14 04:21:24;;;;;;;3.42;2.50;;;20.80;99.90;;;;;;5005591;28;20057;-82
2022/09/14 04:23:55;;;;;;;5.03;3.13;;;20.80;99.90;;;;;;5005001;28;20050;-83
2022/09/14 04:26:41;;;;;;;7.47;2.85;;;20.80;99.90;;;;;;5013643;28;20085;-82
2022/09/14 04:29:09;;;;;;;6.72;2.95;;;20.80;99.90;;;;;;5016021;28;20049;-83
2022/09/14 04:31:36;;;;;;;6.07;2.45;;;20.70;99.90;;;;;;5009801;28;20042;-82
2022/09/14 04:34:03;;;;;;;7.20;2.70;;;20.70;99.90;;;;;;5015582;28;20129;-82
2022/09/14 04:36:29;;;;;;;4.68;2.65;;;20.70;99.90;;;;;;5010383;28;20046;-82
2022/09/14 04:38:59;;;;;;;5.00;2.92;;;20.70;99.90;;;;;;5005355;28;20273;-82
2022/09/14 04:41:26;;;;;;;6.88;3.20;;;20.60;99.90;;;;;;5001765;28;20479;-82
2022/09/14 04:43:54;;;;;;;8.52;3.50;;;20.60;99.90;;;;;;5001887;28;20060;-82
2022/09/14 04:46:35;;;;;;;4.57;3.00;;;20.60;99.90;;;;;;4998539;28;20047;-82
2022/09/14 04:49:02;;;;;;;5.80;2.70;;;20.60;99.90;;;;;;4996723;28;20065;-83
2022/09/14 04:51:31;;;;;;;5.07;3.60;;;20.50;99.90;;;;;;5011503;28;20416;-82
2022/09/14 04:53:59;;;;;;;6.45;3.83;;;20.50;99.90;;;;;;5010389;28;20156;-81
2022/09/14 04:56:27;;;;;;;9.40;4.03;;;20.40;99.90;;;;;;5006154;28;20046;-82
2022/09/14 04:58:57;;;;;;;7.32;3.33;;;20.40;99.90;;;;;;5010155;28;20101;-82
2022/09/14 05:01:30;;;;;;;5.90;3.17;;;20.40;99.90;;;;;;5001193;28;20185;-82
2022/09/14 05:03:57;;;;;;;7.53;3.30;;;20.40;99.90;;;;;;5004653;28;20133;-81
2022/09/14 05:06:27;;;;;;;6.13;4.10;;;20.30;99.90;;;;;;5012807;28;20050;-82
2022/09/14 05:08:54;;;;;;;9.20;4.10;;;20.30;99.90;;;;;;5025612;28;20055;-82
2022/09/14 05:11:23;;;;;;;4.22;3.55;;;20.30;99.90;;;;;;5017018;28;20046;-80
2022/09/14 05:13:51;;;;;;;3.55;2.78;;;20.30;99.90;;;;;;5020284;28;20046;-82
2022/09/14 05:16:19;;;;;;;6.30;2.92;;;20.30;99.90;;;;;;5019803;28;20050;-81
2022/09/14 05:18:46;;;;;;;7.45;3.38;;;20.20;99.90;;;;;;5029799;28;20042;-80
2022/09/14 05:21:15;;;;;;;5.85;2.85;;;20.20;99.90;;;;;;5018213;28;20117;-82
2022/09/14 05:23:43;;;;;;;6.55;3.40;;;20.20;99.90;;;;;;5015376;28;20409;-82
2022/09/14 05:26:10;;;;;;;8.27;3.90;;;20.20;99.90;;;;;;5018889;28;20066;-81
2022/09/14 05:28:37;;;;;;;6.43;3.67;;;20.20;99.90;;;;;;5020222;28;20054;-82
2022/09/14 05:31:06;;;;;;;6.57;2.80;;;20.20;99.90;;;;;;5015830;28;20045;-83
2022/09/14 05:33:33;;;;;;;3.83;3.35;;;20.30;99.90;;;;;;5020083;28;20137;-83
2022/09/14 05:36:05;;;;;;;5.45;2.83;;;20.30;99.90;;;;;;5012097;28;20106;-82
2022/09/14 05:38:35;;;;;;;7.40;3.90;;;20.30;99.90;;;;;;5010038;28;20042;-82
2022/09/14 05:41:03;;;;;;;7.30;3.97;;;20.30;99.90;;;;;;5009029;28;20046;-83
2022/09/14 05:43:30;;;;;;;6.78;3.50;;;20.30;99.90;;;;;;5006408;28;20077;-82
2022/09/14 05:46:01;;;;;;;6.93;3.80;;;20.30;99.90;;;;;;5019177;28;20482;-83
2022/09/14 05:48:35;;;;;;;7.30;3.60;;;20.30;99.90;;;;;;5018031;28;20068;-83
2022/09/14 05:51:10;;;;;;;4.75;3.47;;;20.40;99.90;;;;;;5014361;28;20488;-83
2022/09/14 05:53:37;;;;;;;11.07;4.30;;;20.30;99.90;;;;;;5011666;28;20042;-81
2022/09/14 05:56:12;;;;;;;5.72;3.10;;;20.30;99.90;;;;;;5014710;28;20042;-82
2022/09/14 05:58:40;;;;;;;5.85;3.17;;;20.30;99.90;;;;;;5017583;28;20056;-81
2022/09/14 06:01:10;;;;;;;8.80;4.22;;;20.40;99.90;;;;;;5020138;28;20428;-82
2022/09/14 06:03:37;;;;;;;7.23;4.17;;;20.40;99.90;;;;;;5019652;28;20511;-82
2022/09/14 06:06:05;;;;;;;7.40;4.80;;;20.30;99.90;;;;;;5018572;28;20431;-82
2022/09/14 06:08:33;;;;;;;8.55;4.03;;;20.30;99.90;;;;;;5013524;28;20050;-82
2022/09/14 06:11:05;;;;;;;5.47;3.70;;;20.40;99.90;;;;;;5010376;28;20054;-82
2022/09/14 06:13:32;;;;;;;6.70;3.80;;;20.40;99.90;;;;;;5008460;28;20518;-81
2022/09/14 06:16:08;;;;;;;4.95;4.22;;;20.40;99.90;;;;;;5010701;28;20054;-82
2022/09/14 06:18:36;;;;;;;6.00;4.18;;;20.40;99.90;;;;;;5014823;28;20650;-81
2022/09/14 06:21:03;;;;;;;5.50;3.78;;;20.30;99.90;;;;;;5016673;28;20065;-83
2022/09/14 06:23:31;;;;;;;4.90;3.67;;;20.30;99.90;;;;;;5010869;28;20058;-82
2022/09/14 06:26:00;;;;;;;6.80;3.63;;;20.30;99.90;;;;;;4997034;28;20060;-81
2022/09/14 06:28:28;;;;;;;6.25;3.50;;;20.30;99.90;;;;;;4996838;28;20065;-83
2022/09/14 06:30:55;;;;;;;5.35;3.38;;;20.40;99.90;;;;;;5005823;28;20573;-82
2022/09/14 06:33:23;;;;;;;7.13;3.25;;;20.40;99.90;;;;;;5009324;28;20077;-82
2022/09/14 06:35:58;;;;;;;10.02;3.78;;;20.40;99.90;;;;;;4997377;28;20129;-83
2022/09/14 06:38:26;;;;;;;7.40;2.85;;;20.40;99.90;;;;;;5002921;28;20046;-82
2022/09/14 06:40:55;;;;;;;5.13;3.10;;;20.50;99.90;;;;;;5004184;28;20062;-82
2022/09/14 06:43:27;;;;;;;7.13;4.13;;;20.50;99.90;;;;;;5003549;28;20050;-82
2022/09/14 06:46:00;;;;;;;9.80;3.20;;;20.50;99.90;;;;;;5005494;28;20051;-82
2022/09/14 06:48:34;;;;;;;4.93;3.00;;;20.50;99.90;;;;;;5011192;28;20405;-82
2022/09/14 06:51:32;;;;;;;7.72;3.10;;;20.60;99.90;;;;;;5005553;28;20049;-82
2022/09/14 06:54:00;;;;;;;3.42;2.92;;;20.60;99.90;;;;;;5003070;28;20046;-83
2022/09/14 06:56:30;;;;;;;6.32;3.00;;;20.70;99.90;;;;;;5004332;28;20042;-82
2022/09/14 06:58:57;;;;;;;11.10;2.63;;;20.70;99.90;;;;;;5027432;28;20145;-81
2022/09/14 07:01:25;;;;;;;6.68;2.92;;;20.70;99.90;;;;;;5017390;28;20049;-82
2022/09/14 07:03:53;;;;;;;6.68;2.65;;;20.70;99.90;;;;;;5025243;28;20140;-81
2022/09/14 07:06:22;;;;;;;5.63;2.30;;;20.70;99.90;;;;;;5006783;28;20060;-82
2022/09/14 07:08:50;;;;;;;5.43;2.45;;;20.70;99.90;;;;;;5002597;28;20054;-82
2022/09/14 07:11:19;;;;;;;8.50;2.60;;;20.80;99.90;;;;;;5000002;28;20065;-82
2022/09/14 07:13:47;;;;;;;5.97;2.33;;;20.90;99.90;;;;;;5001722;28;20145;-82
2022/09/14 07:16:13;;;;;;;5.57;2.20;;;20.90;99.90;;;;;;5003739;28;20053;-82
2022/09/14 07:18:41;;;;;;;7.25;2.67;;;21.00;99.90;;;;;;4997860;28;20088;-82
2022/09/14 07:21:16;;;;;;;3.97;1.85;;;21.00;99.90;;;;;;5004377;28;20054;-82
2022/09/14 07:23:45;;;;;;;3.10;2.15;;;21.20;99.90;;;;;;5012564;28;20444;-81
2022/09/14 07:26:13;;;;;;;7.43;2.33;;;21.30;99.90;;;;;;5007951;28;20427;-81
2022/09/14 07:28:41;;;;;;;7.38;2.08;;;21.40;99.90;;;;;;5008494;28;20088;-81
2022/09/14 07:31:26;;;;;;;6.97;2.05;;;21.50;99.90;;;;;;5006890;28;20638;-81
2022/09/14 07:33:55;;;;;;;4.60;1.75;;;21.60;99.90;;;;;;4999494;28;20129;-83
2022/09/14 07:36:24;;;;;;;5.45;2.08;;;21.60;99.90;;;;;;5005320;28;20133;-81
2022/09/14 07:38:51;;;;;;;6.68;2.15;;;21.70;99.90;;;;;;4998756;28;20057;-81
2022/09/14 07:41:25;;;;;;;6.90;2.20;;;21.80;99.90;;;;;;5006033;28;20437;-82
2022/09/14 07:43:55;;;;;;;3.03;1.67;;;21.90;99.90;;;;;;5005933;28;20057;-82
2022/09/14 07:46:22;;;;;;;3.25;1.80;;;22.00;99.90;;;;;;5012941;28;20518;-82
2022/09/14 07:49:00;;;;;;;8.70;1.92;;;22.20;99.90;;;;;;5001644;28;20055;-82
2022/09/14 07:51:28;;;;;;;5.10;2.40;;;22.20;99.90;;;;;;5007065;28;20211;-80
2022/09/14 07:53:58;;;;;;;5.28;1.73;;;22.30;99.90;;;;;;5009203;28;20137;-81
2022/09/14 07:56:25;;;;;;;5.72;1.88;;;22.40;99.90;;;;;;5004035;28;20045;-82
2022/09/14 07:58:55;;;;;;;4.95;1.98;;;22.50;99.90;;;;;;5007137;28;20060;-82
2022/09/14 08:01:42;;;;;;;5.13;2.35;;;22.60;99.90;;;;;;5005464;28;20467;-82
2022/09/14 08:04:09;;;;;;;4.60;1.88;;;22.60;99.90;;;;;;5003256;28;20057;-81
2022/09/14 08:06:36;;;;;;;6.28;1.98;;;22.60;99.90;;;;;;5003189;28;20050;-82
2022/09/14 08:09:06;;;;;;;6.00;2.45;;;22.60;99.90;;;;;;5007837;28;20057;-81
2022/09/14 08:11:36;;;;;;;5.72;1.80;;;22.70;99.90;;;;;;5007868;28;20046;-83
2022/09/14 08:14:08;;;;;;;5.43;2.10;;;22.70;99.90;;;;;;5016735;28;20054;-82
2022/09/14 08:16:37;;;;;;;6.97;2.10;;;22.70;99.90;;;;;;5012806;28;20062;-81
2022/09/14 08:19:06;;;;;;;7.05;3.17;;;22.80;99.90;;;;;;5012119;28;20050;-82
2022/09/14 08:21:34;;;;;;;3.97;1.55;;;22.80;99.90;;;;;;5011209;28;20056;-81
2022/09/14 08:24:03;;;;;;;5.80;2.67;;;22.80;99.90;;;;;;5014679;28;20698;-82
2022/09/14 08:26:30;;;;;;;4.47;1.80;;;22.90;99.90;;;;;;5008904;28;20081;-82
2022/09/14 08:29:00;;;;;;;4.35;1.95;;;23.00;99.90;;;;;;5004658;28;20126;-81
2022/09/14 08:31:27;;;;;;;3.50;2.03;;;23.00;99.90;;;;;;5016063;28;20041;-82
2022/09/14 08:34:00;;;;;;;6.70;1.83;;;23.10;99.90;;;;;;5008751;28;20523;-79
2022/09/14 08:36:30;;;;;;;3.65;1.40;;;23.30;99.90;;;;;;5011193;28;20092;-81
2022/09/14 08:38:56;;;;;;;7.43;1.60;;;23.40;99.90;;;;;;5012774;28;20042;-82
2022/09/14 08:41:52;;;;;;;5.72;2.10;;;23.60;99.90;;;;;;5009273;28;20069;-81
2022/09/14 08:44:39;;;;;;;2.53;1.60;;;23.80;99.90;;;;;;5005174;28;20526;-81
2022/09/14 08:47:11;;;;;;;4.57;1.98;;;24.00;99.90;;;;;;5007716;28;20043;-81
2022/09/14 08:49:56;;;;;;;8.65;1.60;;;24.10;99.90;;;;;;5005662;28;20080;-82
2022/09/14 08:52:47;;;;;;;6.60;1.83;;;24.20;99.90;;;;;;5011985;28;20042;-80
2022/09/14 08:55:16;;;;;;;4.07;1.55;;;24.40;99.90;;;;;;5010860;28;20042;-82
2022/09/14 08:58:11;;;;;;;6.97;1.90;;;24.50;99.90;;;;;;5012328;28;20738;-82
2022/09/14 09:00:46;;;;;;;2.78;1.52;;;24.60;99.90;;;;;;5009392;28;20037;-81
2022/09/14 09:03:37;;;;;;;6.45;1.95;;;24.70;99.90;;;;;;5012373;28;20060;-82
2022/09/14 09:06:13;;;;;;;7.72;2.10;;;24.70;99.90;;;;;;5004833;28;20054;-82
2022/09/14 09:09:03;;;;;;;6.88;2.80;;;24.70;99.90;;;;;;5023060;28;20057;-82
2022/09/14 09:11:41;;;;;;;6.22;2.03;;;24.70;99.90;;;;;;5008571;28;20057;-80
2022/09/14 09:14:19;;;;;;;6.30;1.75;;;24.60;99.90;;;;;;5010584;28;20046;-82
2022/09/14 09:16:49;;;;;;;3.70;1.90;;;24.60;99.90;;;;;;5012735;28;20060;-82
2022/09/14 09:19:29;;;;;;;2.92;1.60;;;24.70;99.90;;;;;;5007628;28;20042;-82
2022/09/14 09:21:58;;;;;;;5.72;1.98;;;24.70;99.90;;;;;;5004922;28;20056;-82
2022/09/14 09:24:38;;;;;;;2.30;1.58;;;24.70;99.90;;;;;;5008804;28;20049;-83
2022/09/14 09:27:13;;;;;;;4.70;2.10;;;24.80;99.90;;;;;;5005279;28;20130;-83
2022/09/14 09:29:40;;;;;;;2.53;1.80;;;24.80;99.90;;;;;;5018967;28;20046;-82
2022/09/14 09:32:18;;;;;;;7.38;2.10;;;25.00;99.90;;;;;;5013998;28;20044;-82
2022/09/14 09:34:45;;;;;;;6.20;2.00;;;25.00;99.90;;;;;;5013284;28;20042;-82
2022/09/14 09:37:19;;;;;;;8.57;1.90;;;25.00;99.90;;;;;;5014039;28;20058;-81
2022/09/14 09:39:45;;;;;;;5.40;1.88;;;25.00;99.90;;;;;;5011243;28;20041;-81
2022/09/14 09:42:22;;;;;;;7.43;2.05;;;25.10;99.90;;;;;;5013456;28;20054;-81
2022/09/14 09:45:07;;;;;;;6.93;1.90;;;25.10;99.90;;;;;;5010378;28;20053;-80
2022/09/14 09:47:41;;;;;;;7.07;2.40;;;25.00;99.90;;;;;;5016094;28;20049;-80
2022/09/14 09:50:18;;;;;;;7.45;2.70;;;24.80;99.90;;;;;;5015442;28;20050;-81
2022/09/14 09:52:50;;;;;;;8.85;3.08;;;24.60;99.90;;;;;;5015080;28;20066;-81
2022/09/14 09:55:19;;;;;;;6.07;2.13;;;24.40;99.90;;;;;;5013925;28;20046;-81
2022/09/14 09:57:46;;;;;;;7.10;2.65;;;24.30;99.90;;;;;;5013045;28;20053;-80
2022/09/14 10:00:24;;;;;;;9.45;3.33;;;24.10;99.90;;;;;;5008877;28;20057;-82
2022/09/14 10:02:53;;;;;;;5.78;2.38;;;24.00;99.90;;;;;;5006588;28;20072;-82
2022/09/14 10:05:39;;;;;;;6.85;2.65;;;23.90;99.90;;;;;;5011079;28;20057;-82
2022/09/14 10:08:17;;;;;;;7.88;2.47;;;23.80;99.90;;;;;;5011097;28;20060;-82
2022/09/14 10:10:44;;;;;;;7.95;3.03;;;23.80;99.90;;;;;;5009333;28;20554;-82
2022/09/14 10:13:22;;;;;;;5.55;3.45;;;23.80;99.90;;;;;;5009535;28;20085;-82
2022/09/14 10:15:49;;;;;;;5.68;2.33;;;23.80;99.90;;;;;;5013086;28;20046;-82
2022/09/14 10:18:21;;;;;;;4.35;1.98;;;23.80;99.90;;;;;;5009324;28;20038;-82
2022/09/14 10:20:53;;;;;;;5.93;2.72;;;23.90;99.90;;;;;;5009526;28;20045;-82
2022/09/14 10:23:20;;;;;;;5.82;2.33;;;23.90;99.90;;;;;;5009906;28;20050;-81
2022/09/14 10:25:51;;;;;;;8.32;2.47;;;24.10;99.90;;;;;;5013014;28;20046;-82
2022/09/14 10:28:25;;;;;;;4.93;2.03;;;24.20;99.90;;;;;;5011389;28;20057;-80
2022/09/14 10:30:59;;;;;;;5.75;2.22;;;24.30;99.90;;;;;;5027355;28;20058;-83
2022/09/14 10:33:26;;;;;;;9.43;2.25;;;24.50;99.90;;;;;;5007091;28;20045;-81
2022/09/14 10:36:22;;;;;;;5.57;3.13;;;24.50;99.90;;;;;;5007650;28;20051;-81
2022/09/14 10:38:57;;;;;;;5.10;2.05;;;24.70;99.90;;;;;;5010982;28;20041;-82
2022/09/14 10:41:38;;;;;;;8.95;2.20;;;24.70;99.90;;;;;;5014440;28;20046;-82
2022/09/14 10:44:27;;;;;;;6.38;2.47;;;24.80;99.90;;;;;;5013692;28;20053;-82
2022/09/14 10:47:32;;;;;;;3.17;1.98;;;24.80;99.90;;;;;;5011381;28;20041;-81
2022/09/14 10:50:18;;;;;;;5.82;2.38;;;24.80;99.90;;;;;;4992977;28;20042;-82
2022/09/14 10:53:04;;;;;;;6.68;2.50;;;24.80;99.90;;;;;;5016046;28;20050;-81
2022/09/14 10:56:02;;;;;;;7.43;2.78;;;24.70;99.90;;;;;;5016774;28;20056;-82
2022/09/14 10:58:57;;;;;;;6.75;2.63;;;24.70;99.90;;;;;;5017532;28;20082;-81
2022/09/14 11:01:42;;;;;;;3.20;1.95;;;24.60;99.90;;;;;;5018420;28;20053;-82
2022/09/14 11:04:39;;;;;;;3.95;1.83;;;24.60;99.90;;;;;;5019888;28;20069;-82
2022/09/14 11:07:21;;;;;;;9.02;2.60;;;24.70;99.90;;;;;;5010671;28;20046;-81
2022/09/14 11:10:11;;;;;;;3.55;2.33;;;24.80;99.90;;;;;;5007298;28;20081;-81
2022/09/14 11:12:57;;;;;;;5.75;2.47;;;24.90;99.90;;;;;;5026846;28;20042;-82
2022/09/14 11:15:36;;;;;;;6.30;3.50;;;25.00;99.90;;;;;;5008180;28;20051;-83
2022/09/14 11:18:11;;;;;;;5.55;2.03;;;25.00;99.90;;;;;;5012428;28;20443;-80
2022/09/14 11:20:59;;;;;;;7.40;2.55;;;25.10;99.90;;;;;;5011738;28;20050;-81
2022/09/14 11:23:39;;;;;;;7.95;2.58;;;25.10;99.90;;;;;;5009275;28;20045;-80
2022/09/14 11:26:11;;;;;;;;;;;25.10;99.90;;;;;;5025735;28;20056;-81
2022/09/14 11:28:47;;;;;;;4.75;2.05;;;25.10;99.90;;;;;;5006620;28;19932;-81
2022/09/14 11:31:27;;;;;;;7.47;2.50;;;25.20;99.90;;;;;;5010658;28;20081;-81
2022/09/14 11:34:12;;;;;;;2.55;1.70;;;25.20;99.90;;;;;;5009084;28;20496;-81
2022/09/14 11:36:44;;;;;;;5.22;1.90;;;25.20;99.90;;;;;;5006927;28;20061;-82
2022/09/14 11:39:14;;;;;;;2.83;1.80;;;25.20;99.90;;;;;;5009996;28;20053;-82
2022/09/14 11:41:47;;;;;;;4.13;2.08;;;25.10;99.90;;;;;;5010399;28;20038;-83
2022/09/14 11:44:39;;;;;;;6.28;2.17;;;25.10;99.90;;;;;;5010326;28;20477;-82
2022/09/14 11:47:19;;;;;;;5.28;1.92;;;25.10;99.90;;;;;;5006438;28;20177;-82
2022/09/14 11:50:05;;;;;;;5.93;2.35;;;25.10;99.90;;;;;;5003826;28;20046;-82
2022/09/14 11:52:33;;;;;;;10.00;2.35;;;25.00;99.90;;;;;;5008984;28;20041;-81
2022/09/14 11:55:01;;;;;;;4.70;2.42;;;25.00;99.90;;;;;;5007021;28;20125;-82
2022/09/14 11:57:32;;;;;;;7.60;2.53;;;25.00;99.90;;;;;;5011129;28;20425;-82
2022/09/14 12:00:02;;;;;;;7.20;2.03;;;25.10;99.90;;;;;;5014912;28;20045;-81
2022/09/14 12:02:59;;;;;;;5.80;2.03;;;25.10;99.90;;;;;;5016571;28;20046;-82
2022/09/14 12:05:29;;;;;;;5.03;2.15;;;25.10;99.90;;;;;;5015738;28;20128;-82
2022/09/14 12:08:03;;;;;;;6.57;2.08;;;25.20;99.90;;;;;;5010051;28;20053;-83
2022/09/14 12:10:30;;;;;;;3.80;2.10;;;25.20;99.90;;;;;;5018393;28;20056;-82
2022/09/14 12:13:18;;;;;;;4.88;1.95;;;25.20;99.90;;;;;;5018605;28;20108;-82
2022/09/14 12:15:45;;;;;;;6.03;1.65;;;25.20;99.90;;;;;;5013889;28;20506;-82
2022/09/14 12:18:19;;;;;;;6.65;2.55;;;25.10;99.90;;;;;;5008554;28;20056;-84
2022/09/14 12:20:51;;;;;;;5.97;2.00;;;25.10;99.90;;;;;;5006217;28;20042;-82
2022/09/14 12:23:36;;;;;;;5.75;1.85;;;25.10;99.90;;;;;;4996370;28;20089;-84
2022/09/14 12:26:34;;;;;;;6.00;2.08;;;25.00;99.90;;;;;;5000233;28;20054;-84
2022/09/14 12:29:25;;;;;;;3.92;1.63;;;24.90;99.90;;;;;;4994576;28;20057;-83
2022/09/14 12:31:55;;;;;;;6.10;2.15;;;24.80;99.90;;;;;;5003215;28;20058;-82
2022/09/14 12:34:29;;;;;;;3.55;1.63;;;24.70;99.90;;;;;;5005071;28;20092;-83
2022/09/14 12:36:58;;;;;;;8.50;1.83;;;24.60;99.90;;;;;;5005561;28;20057;-82
2022/09/14 12:39:32;;;;;;;3.58;1.63;;;24.50;99.90;;;;;;4997648;28;20050;-82
2022/09/14 12:42:23;;;;;;;9.05;2.40;;;24.30;99.90;;;;;;5004997;28;20057;-82
2022/09/14 12:44:51;;;;;;;8.13;1.30;;;24.20;99.90;;;;;;5001266;28;20065;-84
2022/09/14 12:47:24;;;;;;;8.55;1.48;;;24.00;99.90;;;;;;5005408;28;20435;-82
2022/09/14 12:49:57;;;;;;;6.57;1.35;;;23.90;99.90;;;;;;5005860;28;20050;-84
2022/09/14 12:52:50;;;;;;;6.05;1.55;;;23.70;99.90;;;;;;5012753;28;20042;-81
2022/09/14 12:55:32;;;;;;;6.05;1.35;;;23.60;99.90;;;;;;5006943;28;20045;-82
2022/09/14 12:58:32;;;;;;;3.88;1.20;;;23.50;99.90;;;;;;5013580;28;20042;-84
2022/09/14 13:01:14;;;;;;;5.65;1.60;;;23.50;99.90;;;;;;5005716;28;20395;-83
2022/09/14 13:03:49;;;;;;;5.97;1.60;;;23.40;99.90;;;;;;5001269;28;20432;-83
2022/09/14 13:06:16;;;;;;;4.72;1.17;;;23.40;99.90;;;;;;5002548;28;20046;-83
2022/09/14 13:08:46;;;;;;;6.25;1.40;;;23.40;99.90;;;;;;5008226;28;20049;-83
2022/09/14 13:11:30;;;;;;;3.90;1.20;;;23.40;99.90;;;;;;5007073;28;20071;-84
2022/09/14 13:13:59;;;;;;;2.80;1.30;;;23.40;99.90;;;;;;5002966;28;20437;-83
2022/09/14 13:16:36;;;;;;;4.47;1.40;;;23.40;99.90;;;;;;5003821;28;20050;-82
2022/09/14 13:19:05;;;;;;;3.22;1.40;;;23.40;99.90;;;;;;4995107;28;20046;-83
2022/09/14 13:21:46;;;;;;;6.38;1.20;;;23.40;99.90;;;;;;4996678;28;20054;-84